createdAt,value
2022-12-09T00:01:10.897Z,10.52
2022-12-09T00:03:43.816Z,16.88
2022-12-09T00:06:20.877Z,12.00
2022-12-09T00:08:54.857Z,21.23
2022-12-09T00:11:27.894Z,18.35
2022-12-09T00:14:00.551Z,17.95
2022-12-09T00:16:33.720Z,13.95
2022-12-09T00:19:07.942Z,15.00
2022-12-09T00:21:41.826Z,16.55
2022-12-09T00:24:14.990Z,15.10
2022-12-09T00:26:47.921Z,19.45
2022-12-09T00:29:20.546Z,15.55
2022-12-09T00:31:53.949Z,13.57
2022-12-09T00:34:26.663Z,17.25
2022-12-09T00:36:59.663Z,16.38
2022-12-09T00:39:32.323Z,14.73
2022-12-09T00:42:05.259Z,18.63
2022-12-09T00:44:37.852Z,12.57
2022-12-09T00:47:11.089Z,13.15
2022-12-09T00:49:43.777Z,19.65
2022-12-09T00:52:16.701Z,18.55
2022-12-09T00:54:49.384Z,16.58
2022-12-09T00:57:22.456Z,20.23
2022-12-09T00:59:55.034Z,15.45
2022-12-09T01:02:28.274Z,16.42
2022-12-09T01:05:02.459Z,16.17
2022-12-09T01:07:37.837Z,11.45
2022-12-09T01:10:10.744Z,14.27
2022-12-09T01:12:44.068Z,13.82
2022-12-09T01:15:17.416Z,17.73
2022-12-09T01:17:50.349Z,26.15
2022-12-09T01:20:23.182Z,14.77
2022-12-09T01:22:56.259Z,15.40
2022-12-09T01:25:30.222Z,22.63
2022-12-09T01:28:03.378Z,21.33
2022-12-09T01:30:36.113Z,16.83
2022-12-09T01:33:09.243Z,15.35
2022-12-09T01:35:42.108Z,15.13
2022-12-09T01:38:15.409Z,16.83
2022-12-09T01:40:48.380Z,15.38
2022-12-09T01:43:21.477Z,19.25
2022-12-09T01:45:54.286Z,21.75
2022-12-09T01:48:28.505Z,17.35
2022-12-09T01:51:03.404Z,13.07
2022-12-09T01:53:37.539Z,14.95
2022-12-09T01:56:22.418Z,13.95
2022-12-09T01:58:58.135Z,21.25
2022-12-09T02:01:30.912Z,20.23
2022-12-09T02:04:04.869Z,14.45
2022-12-09T02:06:38.678Z,14.30
2022-12-09T02:09:14.562Z,17.80
2022-12-09T02:12:09.484Z,18.45
2022-12-09T02:15:00.631Z,21.42
2022-12-09T02:17:40.016Z,21.08
2022-12-09T02:23:00.892Z,15.43
2022-12-09T02:25:42.764Z,20.52
2022-12-09T02:28:34.393Z,18.33
2022-12-09T02:31:26.483Z,21.63
2022-12-09T02:34:13.862Z,22.67
2022-12-09T02:36:59.779Z,22.05
2022-12-09T02:39:38.848Z,19.08
2022-12-09T02:42:15.160Z,17.17
2022-12-09T02:44:49.614Z,18.52
2022-12-09T02:47:26.616Z,27.17
2022-12-09T02:50:02.180Z,26.52
2022-12-09T02:52:37.659Z,16.58
2022-12-09T02:55:11.219Z,18.52
2022-12-09T02:57:46.748Z,25.20
2022-12-09T03:00:20.226Z,20.50
2022-12-09T03:02:58.793Z,18.67
2022-12-09T03:05:31.808Z,22.85
2022-12-09T03:08:12.494Z,18.08
2022-12-09T03:10:45.006Z,16.40
2022-12-09T03:13:36.616Z,20.27
2022-12-09T03:16:29.614Z,23.27
2022-12-09T03:19:08.749Z,15.02
2022-12-09T03:21:44.821Z,20.65
2022-12-09T03:24:22.764Z,12.88
2022-12-09T03:26:55.264Z,17.10
2022-12-09T03:29:29.774Z,16.05
2022-12-09T03:32:02.752Z,16.33
2022-12-09T03:34:38.271Z,22.42
2022-12-09T03:37:12.206Z,15.07
2022-12-09T03:39:45.780Z,17.63
2022-12-09T03:42:23.573Z,17.90
2022-12-09T03:44:58.649Z,15.52
2022-12-09T03:47:37.260Z,16.98
2022-12-09T03:50:12.404Z,25.13
2022-12-09T03:53:08.356Z,16.77
2022-12-09T03:55:55.052Z,23.33
2022-12-09T03:58:28.978Z,22.95
2022-12-09T04:01:02.968Z,17.33
2022-12-09T04:03:35.922Z,17.48
2022-12-09T04:06:09.040Z,14.60
2022-12-09T04:08:41.793Z,20.75
2022-12-09T04:11:15.183Z,17.17
2022-12-09T04:13:47.952Z,12.90
2022-12-09T04:16:20.945Z,17.15
2022-12-09T04:18:53.562Z,17.40
2022-12-09T04:21:27.406Z,18.02
2022-12-09T04:24:00.884Z,22.30
2022-12-09T04:26:34.277Z,15.80
2022-12-09T04:29:06.994Z,16.73
2022-12-09T04:31:40.439Z,22.80
2022-12-09T04:34:13.379Z,24.42
2022-12-09T04:36:46.359Z,20.35
2022-12-09T04:39:19.934Z,19.35
2022-12-09T04:41:53.119Z,24.88
2022-12-09T04:44:25.992Z,17.20
2022-12-09T04:46:59.237Z,32.50
2022-12-09T04:49:32.301Z,21.27
2022-12-09T04:52:05.396Z,27.67
2022-12-09T04:54:37.974Z,24.70
2022-12-09T04:57:12.555Z,21.73
2022-12-09T04:59:45.200Z,28.55
2022-12-09T05:02:18.479Z,20.40
2022-12-09T05:04:51.488Z,20.23
2022-12-09T05:07:25.519Z,19.35
2022-12-09T05:09:58.861Z,23.98
2022-12-09T05:12:33.383Z,13.32
2022-12-09T05:15:06.435Z,28.05
2022-12-09T05:17:39.851Z,29.02
2022-12-09T05:20:13.157Z,20.92
2022-12-09T05:22:46.776Z,23.80
2022-12-09T05:25:19.330Z,24.88
2022-12-09T05:27:52.471Z,12.90
2022-12-09T05:30:25.097Z,18.90
2022-12-09T05:32:58.484Z,14.85
2022-12-09T05:35:31.626Z,14.88
2022-12-09T05:38:05.057Z,25.02
2022-12-09T05:40:38.271Z,17.88
2022-12-09T05:43:11.517Z,12.48
2022-12-09T05:45:44.445Z,17.83
2022-12-09T05:48:17.396Z,19.90
2022-12-09T05:51:00.703Z,20.25
2022-12-09T05:53:34.617Z,19.75
2022-12-09T05:56:07.435Z,17.88
2022-12-09T05:58:40.984Z,21.75
2022-12-09T06:01:14.237Z,17.63
2022-12-09T06:03:48.374Z,21.10
2022-12-09T06:06:23.011Z,28.17
2022-12-09T06:08:57.888Z,24.83
2022-12-09T06:11:32.523Z,30.63
2022-12-09T06:14:07.754Z,29.45
2022-12-09T06:16:40.611Z,39.55
2022-12-09T06:19:13.947Z,31.45
2022-12-09T06:21:46.767Z,35.10
2022-12-09T06:24:20.034Z,56.55
2022-12-09T06:26:55.684Z,46.30
2022-12-09T06:29:28.867Z,39.33
2022-12-09T06:32:01.795Z,26.02
2022-12-09T06:34:34.981Z,24.30
2022-12-09T06:37:08.073Z,19.42
2022-12-09T06:39:41.305Z,32.95
2022-12-09T06:42:14.433Z,18.90
2022-12-09T06:44:47.828Z,21.60
2022-12-09T06:47:20.718Z,25.70
2022-12-09T06:49:54.109Z,26.67
2022-12-09T06:52:27.613Z,16.65
2022-12-09T06:55:00.739Z,21.58
2022-12-09T06:57:33.474Z,15.65
2022-12-09T07:00:07.163Z,20.05
2022-12-09T07:02:40.048Z,17.90
2022-12-09T07:05:13.384Z,24.60
2022-12-09T07:07:50.714Z,19.77
2022-12-09T07:10:23.972Z,27.30
2022-12-09T07:12:57.442Z,25.77
2022-12-09T07:15:30.392Z,29.65
2022-12-09T07:18:03.659Z,30.75
2022-12-09T07:20:36.855Z,31.33
2022-12-09T07:23:10.753Z,38.30
2022-12-09T07:25:44.004Z,35.10
2022-12-09T07:28:16.836Z,26.10
2022-12-09T07:30:50.165Z,49.65
2022-12-09T07:33:22.883Z,27.30
2022-12-09T07:35:57.574Z,27.08
2022-12-09T07:38:30.407Z,25.38
2022-12-09T07:41:07.643Z,18.38
2022-12-09T07:43:40.426Z,17.42
2022-12-09T07:46:14.375Z,30.13
2022-12-09T07:48:47.387Z,28.08
2022-12-09T07:51:21.176Z,26.67
2022-12-09T07:53:54.145Z,20.52
2022-12-09T07:56:29.389Z,20.10
2022-12-09T07:59:02.790Z,24.95
2022-12-09T08:01:36.580Z,20.13
2022-12-09T08:04:09.911Z,21.02
2022-12-09T08:06:43.513Z,21.23
2022-12-09T08:09:16.770Z,20.35
2022-12-09T08:11:50.277Z,16.75
2022-12-09T08:14:23.390Z,21.17
2022-12-09T08:16:56.344Z,15.77
2022-12-09T08:19:29.577Z,17.73
2022-12-09T08:22:03.019Z,19.50
2022-12-09T08:24:36.024Z,25.02
2022-12-09T08:27:09.191Z,27.55
2022-12-09T08:29:42.137Z,24.63
2022-12-09T08:32:17.142Z,20.48
2022-12-09T08:34:50.335Z,35.47
2022-12-09T08:37:23.578Z,35.63
2022-12-09T08:39:56.529Z,50.95
2022-12-09T08:42:30.564Z,45.72
2022-12-09T08:45:04.014Z,35.80
2022-12-09T08:47:37.255Z,27.98
2022-12-09T08:50:10.583Z,25.95
2022-12-09T08:52:44.366Z,20.00
2022-12-09T08:55:17.068Z,24.75
2022-12-09T08:57:50.144Z,34.85
2022-12-09T09:00:23.519Z,24.48
2022-12-09T09:02:56.671Z,26.70
2022-12-09T09:05:29.881Z,18.63
2022-12-09T09:08:03.422Z,25.70
2022-12-09T09:10:37.347Z,25.23
2022-12-09T09:13:10.419Z,30.35
2022-12-09T09:15:43.709Z,23.05
2022-12-09T09:18:17.527Z,25.13
2022-12-09T09:20:52.554Z,31.52
2022-12-09T09:23:26.268Z,18.55
2022-12-09T09:25:59.151Z,21.65
2022-12-09T09:28:32.645Z,29.98
2022-12-09T09:31:07.455Z,27.67
2022-12-09T09:33:40.998Z,28.58
2022-12-09T09:36:21.007Z,34.45
2022-12-09T09:38:55.294Z,35.15
2022-12-09T09:41:34.880Z,23.27
2022-12-09T09:44:18.916Z,31.23
2022-12-09T09:46:53.334Z,28.02
2022-12-09T09:49:36.499Z,34.72
2022-12-09T09:52:14.567Z,27.90
2022-12-09T09:54:47.936Z,29.13
2022-12-09T09:57:36.643Z,24.35
2022-12-09T10:00:13.110Z,28.13
2022-12-09T10:02:47.110Z,28.30
2022-12-09T10:05:20.715Z,20.23
2022-12-09T10:08:20.128Z,40.20
2022-12-09T10:11:01.969Z,23.40
2022-12-09T10:13:53.676Z,27.95
2022-12-09T10:19:08.930Z,18.30
2022-12-09T10:21:44.435Z,25.45
2022-12-09T10:24:26.217Z,27.88
2022-12-09T10:27:02.907Z,35.60
2022-12-09T10:29:35.627Z,25.33
2022-12-09T10:32:14.685Z,25.40
2022-12-09T10:34:48.699Z,39.00
2022-12-09T10:37:30.770Z,24.30
2022-12-09T10:40:16.699Z,26.40
2022-12-09T10:43:11.765Z,26.42
2022-12-09T10:48:45.499Z,27.27
2022-12-09T10:51:23.084Z,16.98
2022-12-09T10:54:01.849Z,28.40
2022-12-09T10:56:36.101Z,27.65
2022-12-09T10:59:18.940Z,25.13
2022-12-09T11:01:52.617Z,19.73
2022-12-09T11:04:30.775Z,22.63
2022-12-09T11:07:05.361Z,25.63
2022-12-09T11:09:42.637Z,19.55
2022-12-09T11:12:20.407Z,33.90
2022-12-09T11:14:57.745Z,27.58
2022-12-09T11:17:31.740Z,34.55
2022-12-09T11:20:21.098Z,28.80
2022-12-09T11:23:14.442Z,42.70
2022-12-09T11:26:01.143Z,36.20
2022-12-09T11:28:35.161Z,38.20
2022-12-09T11:31:29.439Z,21.02
2022-12-09T11:34:04.670Z,36.70
2022-12-09T11:36:44.351Z,21.08
2022-12-09T11:39:20.078Z,35.33
2022-12-09T11:42:18.876Z,41.60
2022-12-09T11:44:57.876Z,32.90
2022-12-09T11:47:57.380Z,28.10
2022-12-09T11:50:31.828Z,28.75
2022-12-09T11:53:25.989Z,28.80
2022-12-09T11:56:15.491Z,21.65
2022-12-09T11:58:48.749Z,30.45
2022-12-09T12:01:27.915Z,29.13
2022-12-09T12:04:02.058Z,34.05
2022-12-09T12:06:37.276Z,32.28
2022-12-09T12:09:36.495Z,25.40
2022-12-09T12:12:19.705Z,22.83
2022-12-09T12:14:53.674Z,26.95
2022-12-09T12:17:30.586Z,26.13
2022-12-09T12:20:05.048Z,27.70
2022-12-09T12:22:51.544Z,18.92
2022-12-09T12:25:45.182Z,31.58
2022-12-09T12:28:20.689Z,27.15
2022-12-09T12:30:59.597Z,29.75
2022-12-09T12:34:23.509Z,26.35
2022-12-09T12:36:54.362Z,21.42
2022-12-09T12:39:26.910Z,25.98
2022-12-09T12:42:20.408Z,29.38
2022-12-09T12:45:11.284Z,28.00
2022-12-09T12:47:47.072Z,19.77
2022-12-09T12:50:28.797Z,24.92
2022-12-09T12:53:07.720Z,28.42
2022-12-09T12:55:48.109Z,34.63
2022-12-09T12:58:21.037Z,21.92
2022-12-09T13:00:56.452Z,27.60
2022-12-09T13:03:53.317Z,20.30
2022-12-09T13:06:41.207Z,26.13
2022-12-09T13:09:22.562Z,26.48
2022-12-09T13:12:04.632Z,19.08
2022-12-09T13:14:51.736Z,33.13
2022-12-09T13:17:27.539Z,27.55
2022-12-09T13:20:02.116Z,25.15
2022-12-09T13:22:50.249Z,26.65
2022-12-09T13:25:34.647Z,22.10
2022-12-09T13:28:11.224Z,20.23
2022-12-09T13:30:46.379Z,20.20
2022-12-09T13:33:30.157Z,21.75
2022-12-09T13:36:06.451Z,28.90
2022-12-09T13:38:42.774Z,18.73
2022-12-09T13:41:31.164Z,20.30
2022-12-09T13:44:10.285Z,25.42
2022-12-09T13:46:43.586Z,22.55
2022-12-09T13:49:18.927Z,26.60
2022-12-09T13:51:53.037Z,36.08
2022-12-09T13:54:26.676Z,35.00
2022-12-09T13:57:08.393Z,17.10
2022-12-09T13:59:44.583Z,21.77
2022-12-09T14:02:17.531Z,22.92
2022-12-09T14:04:59.077Z,20.52
2022-12-09T14:10:05.244Z,21.70
2022-12-09T14:12:44.343Z,20.85
2022-12-09T14:15:37.300Z,31.60
2022-12-09T14:18:30.458Z,34.03
2022-12-09T14:21:18.388Z,28.35
2022-12-09T14:24:09.729Z,29.95
2022-12-09T14:26:45.324Z,24.58
2022-12-09T14:29:36.962Z,26.70
2022-12-09T14:32:29.315Z,34.63
2022-12-09T14:35:11.301Z,27.48
2022-12-09T14:38:04.778Z,21.55
2022-12-09T14:41:16.392Z,38.17
2022-12-09T14:43:50.531Z,21.20
2022-12-09T14:46:26.984Z,21.45
2022-12-09T14:49:05.217Z,25.23
2022-12-09T14:51:40.614Z,23.10
2022-12-09T14:54:33.428Z,21.83
2022-12-09T14:57:10.615Z,42.45
2022-12-09T14:59:50.603Z,35.30
2022-12-09T15:02:24.113Z,37.00
2022-12-09T15:04:58.268Z,23.15
2022-12-09T15:07:32.174Z,18.52
2022-12-09T15:10:06.943Z,26.63
2022-12-09T15:12:41.789Z,25.23
2022-12-09T15:15:34.591Z,19.40
2022-12-09T15:18:07.825Z,21.92
2022-12-09T15:20:41.513Z,28.05
2022-12-09T15:23:14.315Z,27.52
2022-12-09T15:25:51.341Z,38.33
2022-12-09T15:28:28.742Z,41.00
2022-12-09T15:31:14.859Z,55.83
2022-12-09T15:33:49.941Z,28.98
2022-12-09T15:36:36.765Z,28.88
2022-12-09T15:39:12.081Z,42.17
2022-12-09T15:42:04.126Z,25.42
2022-12-09T15:44:48.340Z,35.05
2022-12-09T15:47:23.703Z,27.92
2022-12-09T15:50:02.056Z,23.42
2022-12-09T15:52:38.378Z,31.52
2022-12-09T15:55:12.660Z,26.77
2022-12-09T15:57:45.662Z,26.05
2022-12-09T16:00:19.139Z,28.33
2022-12-09T16:02:52.179Z,32.58
2022-12-09T16:05:26.196Z,26.67
2022-12-09T16:08:00.633Z,28.02
2022-12-09T16:10:44.968Z,27.67
2022-12-09T16:13:19.385Z,29.08
2022-12-09T16:15:53.580Z,29.33
2022-12-09T16:18:30.451Z,17.42
2022-12-09T16:21:09.147Z,35.35
2022-12-09T16:23:43.355Z,37.85
2022-12-09T16:26:33.726Z,22.60
2022-12-09T16:29:07.936Z,41.33
2022-12-09T16:31:40.948Z,26.25
2022-12-09T16:34:22.596Z,28.02
2022-12-09T16:39:28.096Z,25.80
2022-12-09T16:42:03.393Z,24.90
2022-12-09T16:44:36.734Z,27.35
2022-12-09T16:47:14.752Z,32.05
2022-12-09T16:49:48.361Z,26.63
2022-12-09T16:52:22.955Z,24.20
2022-12-09T16:54:55.506Z,27.70
2022-12-09T16:57:28.373Z,21.67
2022-12-09T17:00:00.976Z,31.85
2022-12-09T17:02:36.863Z,19.35
2022-12-09T17:05:10.638Z,27.60
2022-12-09T17:07:43.890Z,29.45
2022-12-09T17:10:16.880Z,30.50
2022-12-09T17:12:49.970Z,18.60
2022-12-09T17:15:22.943Z,19.83
2022-12-09T17:17:55.943Z,28.13
2022-12-09T17:20:28.630Z,25.25
2022-12-09T17:23:01.514Z,22.52
2022-12-09T17:25:34.093Z,29.30
2022-12-09T17:28:07.234Z,31.23
2022-12-09T17:30:39.808Z,29.55
2022-12-09T17:33:13.332Z,21.83
2022-12-09T17:35:45.884Z,21.00
2022-12-09T17:38:19.230Z,29.77
2022-12-09T17:40:51.809Z,24.50
2022-12-09T17:43:25.368Z,33.05
2022-12-09T17:46:01.079Z,21.75
2022-12-09T17:48:34.872Z,24.50
2022-12-09T17:51:08.881Z,22.55
2022-12-09T17:53:42.718Z,22.25
2022-12-09T17:56:20.229Z,29.05
2022-12-09T17:58:57.746Z,25.70
2022-12-09T18:01:30.918Z,18.63
2022-12-09T18:04:09.880Z,32.47
2022-12-09T18:06:44.148Z,23.00
2022-12-09T18:09:18.810Z,25.77
2022-12-09T18:11:52.435Z,29.42
2022-12-09T18:14:25.840Z,27.48
2022-12-09T18:16:58.387Z,29.98
2022-12-09T18:19:31.448Z,30.08
2022-12-09T18:22:04.040Z,25.65
2022-12-09T18:24:36.891Z,29.77
2022-12-09T18:27:09.435Z,40.85
2022-12-09T18:29:42.457Z,25.73
2022-12-09T18:32:15.099Z,25.58
2022-12-09T18:34:48.052Z,23.02
2022-12-09T18:37:21.147Z,24.23
2022-12-09T18:39:54.088Z,28.38
2022-12-09T18:42:26.705Z,24.30
2022-12-09T18:44:59.556Z,25.67
2022-12-09T18:47:32.109Z,24.83
2022-12-09T18:50:05.569Z,26.33
2022-12-09T18:52:39.417Z,20.95
2022-12-09T18:55:12.806Z,17.05
2022-12-09T18:57:46.821Z,23.95
2022-12-09T19:00:20.669Z,24.10
2022-12-09T19:02:53.241Z,31.88
2022-12-09T19:05:26.765Z,24.15
2022-12-09T19:07:59.370Z,29.38
2022-12-09T19:10:32.380Z,27.33
2022-12-09T19:13:05.271Z,26.90
2022-12-09T19:15:38.152Z,25.80
2022-12-09T19:18:10.591Z,33.25
2022-12-09T19:20:43.617Z,40.65
2022-12-09T19:23:16.188Z,30.88
2022-12-09T19:25:49.454Z,33.15
2022-12-09T19:28:22.090Z,27.92
2022-12-09T19:30:55.074Z,30.75
2022-12-09T19:33:27.659Z,31.63
2022-12-09T19:36:03.082Z,35.35
2022-12-09T19:38:36.468Z,28.88
2022-12-09T19:41:09.387Z,29.83
2022-12-09T19:43:41.900Z,37.25
2022-12-09T19:46:15.812Z,31.50
2022-12-09T19:48:48.374Z,25.38
2022-12-09T19:51:22.447Z,31.30
2022-12-09T19:53:55.823Z,35.13
2022-12-09T19:56:29.387Z,28.15
2022-12-09T19:59:02.011Z,36.35
2022-12-09T20:01:36.504Z,36.83
2022-12-09T20:04:25.723Z,33.60
2022-12-09T20:07:06.395Z,41.30
2022-12-09T20:09:40.670Z,22.92
2022-12-09T20:12:13.618Z,31.10
2022-12-09T20:14:46.323Z,25.15
2022-12-09T20:17:19.301Z,27.25
2022-12-09T20:19:51.949Z,29.13
2022-12-09T20:22:25.331Z,36.17
2022-12-09T20:24:57.944Z,27.90
2022-12-09T20:27:30.957Z,20.20
2022-12-09T20:30:03.855Z,25.45
2022-12-09T20:32:36.770Z,24.90
2022-12-09T20:35:09.474Z,38.67
2022-12-09T20:37:42.615Z,31.50
2022-12-09T20:40:15.196Z,48.35
2022-12-09T20:42:48.144Z,73.60
2022-12-09T20:45:20.996Z,41.63
2022-12-09T20:47:54.595Z,33.50
2022-12-09T20:50:27.250Z,33.58
2022-12-09T20:53:00.150Z,31.58
2022-12-09T20:55:32.661Z,37.28
2022-12-09T20:58:05.583Z,34.53
2022-12-09T21:00:38.132Z,35.28
2022-12-09T21:03:10.955Z,49.30
2022-12-09T21:05:43.536Z,55.60
2022-12-09T21:08:17.536Z,60.15
2022-12-09T21:10:50.295Z,44.40
2022-12-09T21:13:23.327Z,48.90
2022-12-09T21:16:03.528Z,46.05
2022-12-09T21:18:36.800Z,47.40
2022-12-09T21:21:09.321Z,37.60
2022-12-09T21:23:43.310Z,51.13
2022-12-09T21:26:17.211Z,44.25
2022-12-09T21:28:50.563Z,36.83
2022-12-09T21:31:27.259Z,36.78
2022-12-09T21:34:04.323Z,45.08
2022-12-09T21:36:38.235Z,49.88
2022-12-09T21:39:12.503Z,36.65
2022-12-09T21:41:45.196Z,36.08
2022-12-09T21:44:19.066Z,40.08
2022-12-09T21:46:51.695Z,35.97
2022-12-09T21:49:25.102Z,33.28
2022-12-09T21:51:57.551Z,38.08
2022-12-09T21:54:30.551Z,38.17
2022-12-09T21:57:03.193Z,37.58
2022-12-09T21:59:36.207Z,25.77
2022-12-09T22:02:09.852Z,34.28
2022-12-09T22:04:42.890Z,27.92
2022-12-09T22:07:15.485Z,27.42
2022-12-09T22:09:49.230Z,35.60
2022-12-09T22:12:21.875Z,30.60
2022-12-09T22:14:55.850Z,34.75
2022-12-09T22:17:28.372Z,33.75
2022-12-09T22:20:43.963Z,39.25
2022-12-09T22:22:54.017Z,35.15
2022-12-09T22:25:26.927Z,34.72
2022-12-09T22:27:59.474Z,41.63
2022-12-09T22:30:32.507Z,44.65
2022-12-09T22:33:05.084Z,39.58
2022-12-09T22:35:37.963Z,46.20
2022-12-09T22:38:14.476Z,41.42
2022-12-09T22:40:47.792Z,43.50
2022-12-09T22:43:20.340Z,44.53
2022-12-09T22:45:53.237Z,55.45
2022-12-09T22:48:26.058Z,41.85
2022-12-09T22:51:06.505Z,53.25
2022-12-09T22:53:39.536Z,51.30
2022-12-09T22:56:12.779Z,41.53
2022-12-09T22:58:45.781Z,44.72
2022-12-09T23:01:20.406Z,38.28
2022-12-09T23:03:53.875Z,53.08
2022-12-09T23:06:27.487Z,57.47
2022-12-09T23:09:00.121Z,51.72
2022-12-09T23:11:33.265Z,43.70
2022-12-09T23:14:06.328Z,52.85
2022-12-09T23:16:39.224Z,44.17
2022-12-09T23:19:13.124Z,53.55
2022-12-09T23:21:46.302Z,54.88
2022-12-09T23:24:24.694Z,49.00
2022-12-09T23:26:58.123Z,52.15
2022-12-09T23:29:30.697Z,60.67
2022-12-09T23:32:03.620Z,56.35
2022-12-09T23:34:36.156Z,55.00
2022-12-09T23:37:09.088Z,51.00
2022-12-09T23:39:41.839Z,52.25
2022-12-09T23:42:15.047Z,46.55
2022-12-09T23:44:47.665Z,51.28
2022-12-09T23:47:20.470Z,46.25
2022-12-09T23:49:53.127Z,47.33
2022-12-09T23:52:25.999Z,49.30
2022-12-09T23:55:03.944Z,46.92
2022-12-09T23:57:37.393Z,59.10
